Time;durP1;ratioP1;P1;durP2;ratioP2;P2;SDS_P1;SDS_P2;PMS_P1;PMS_P2;Temp;Humidity;BMP_temperature;BMP_pressure;BME280_temperature;BME280_humidity;BME280_pressure;Samples;Min_cycle;Max_cycle;Signal;HPM_P1;HPM_P2
2023/10/12 00:01:23;;;;;;;;;5.25;3.00;;;;;;;;5069791;27;45525;-44
2023/10/12 00:03:49;;;;;;;;;5.00;5.00;;;;;;;;5067732;27;46261;-43
2023/10/12 00:06:18;;;;;;;;;4.00;3.00;;;;;;;;5077047;28;45433;-42
2023/10/12 00:08:43;;;;;;;;;8.00;4.00;;;;;;;;5074465;27;45430;-43
2023/10/12 00:11:08;;;;;;;;;4.67;3.00;;;;;;;;5067208;27;45382;-42
2023/10/12 00:13:38;;;;;;;;;5.00;3.00;;;;;;;;5076357;27;45636;-42
2023/10/12 00:16:03;;;;;;;;;4.67;4.00;;;;;;;;5080170;27;45342;-42
2023/10/12 00:18:28;;;;;;;;;5.67;5.00;;;;;;;;5068734;27;45350;-43
2023/10/12 00:20:54;;;;;;;;;4.00;3.67;;;;;;;;5069091;27;45587;-42
2023/10/12 00:23:20;;;;;;;;;3.67;3.67;;;;;;;;5077448;27;46795;-42
2023/10/12 00:25:47;;;;;;;;;4.67;4.67;;;;;;;;5076932;27;45330;-44
2023/10/12 00:28:14;;;;;;;;;7.33;5.33;;;;;;;;5077781;27;45349;-42
2023/10/12 00:30:41;;;;;;;;;5.33;5.33;;;;;;;;5078623;27;45515;-42
2023/10/12 00:33:08;;;;;;;;;4.00;4.00;;;;;;;;5076588;27;46061;-42
2023/10/12 00:35:34;;;;;;;;;3.67;3.00;;;;;;;;5066440;27;45224;-43
2023/10/12 00:38:01;;;;;;;;;7.67;6.33;;;;;;;;5075703;27;45697;-42
2023/10/12 00:40:31;;;;;;;;;8.33;5.00;;;;;;;;5075924;27;45468;-42
2023/10/12 00:43:00;;;;;;;;;4.67;4.67;;;;;;;;5068873;27;46211;-42
2023/10/12 00:45:29;;;;;;;;;4.33;4.33;;;;;;;;5076226;27;45504;-42
2023/10/12 00:47:56;;;;;;;;;9.00;5.67;;;;;;;;5074677;27;45628;-42
2023/10/12 00:50:21;;;;;;;;;8.67;6.00;;;;;;;;5075759;27;45535;-43
2023/10/12 00:52:57;;;;;;;;;5.00;5.00;;;;;;;;5072952;27;46036;-43
2023/10/12 00:55:34;;;;;;;;;6.67;5.67;;;;;;;;5071244;27;45464;-42
2023/10/12 00:58:00;;;;;;;;;5.00;5.00;;;;;;;;5080231;27;45567;-42
2023/10/12 01:00:26;;;;;;;;;6.33;4.33;;;;;;;;5077238;27;45611;-43
2023/10/12 01:03:07;;;;;;;;;5.00;4.00;;;;;;;;5072261;28;46311;-44
2023/10/12 01:05:35;;;;;;;;;6.00;5.67;;;;;;;;5063049;27;45594;-42
2023/10/12 01:08:04;;;;;;;;;8.67;5.33;;;;;;;;5074388;27;45437;-42
2023/10/12 01:10:31;;;;;;;;;8.67;5.00;;;;;;;;5079242;27;45996;-43
2023/10/12 01:12:57;;;;;;;;;5.67;4.67;;;;;;;;5078109;27;47595;-43
2023/10/12 01:15:27;;;;;;;;;4.67;3.00;;;;;;;;5074069;27;45431;-42
2023/10/12 01:17:52;;;;;;;;;5.33;5.00;;;;;;;;5064080;27;45366;-42
2023/10/12 01:20:25;;;;;;;;;7.33;5.33;;;;;;;;5072294;27;45519;-42
2023/10/12 01:22:51;;;;;;;;;5.67;4.00;;;;;;;;5079240;27;46259;-42
2023/10/12 01:25:28;;;;;;;;;4.00;4.00;;;;;;;;5078953;27;45537;-42
2023/10/12 01:27:54;;;;;;;;;3.00;3.00;;;;;;;;5074807;28;45364;-42
2023/10/12 01:30:22;;;;;;;;;6.00;6.00;;;;;;;;5075834;28;45426;-43
2023/10/12 01:33:02;;;;;;;;;6.00;4.33;;;;;;;;5078194;27;47062;-42
2023/10/12 01:35:33;;;;;;;;;5.00;5.00;;;;;;;;5078429;27;45545;-43
2023/10/12 01:38:04;;;;;;;;;5.67;5.67;;;;;;;;5077932;27;45517;-42
2023/10/12 01:43:14;;;;;;;;;7.00;7.00;;;;;;;;5078245;27;45413;-42
2023/10/12 01:45:43;;;;;;;;;5.67;4.67;;;;;;;;5078143;27;45254;-43
2023/10/12 01:48:22;;;;;;;;;4.00;4.00;;;;;;;;5078231;27;45317;-43
2023/10/12 01:50:47;;;;;;;;;4.67;4.67;;;;;;;;5078978;27;45337;-42
2023/10/12 01:53:24;;;;;;;;;4.33;4.33;;;;;;;;5075684;27;46101;-42
2023/10/12 01:55:52;;;;;;;;;7.00;5.67;;;;;;;;5078061;27;45298;-42
2023/10/12 01:58:23;;;;;;;;;6.00;4.00;;;;;;;;5078698;27;45386;-43
2023/10/12 02:00:51;;;;;;;;;5.00;5.00;;;;;;;;5066672;27;45609;-42
2023/10/12 02:03:20;;;;;;;;;5.67;4.00;;;;;;;;5064124;27;46842;-42
2023/10/12 02:05:58;;;;;;;;;3.67;3.67;;;;;;;;5064851;27;45399;-42
2023/10/12 02:08:26;;;;;;;;;4.33;4.33;;;;;;;;5074217;27;45366;-43
2023/10/12 02:10:57;;;;;;;;;4.75;3.25;;;;;;;;5071297;27;46832;-42
2023/10/12 02:13:23;;;;;;;;;5.67;5.67;;;;;;;;5077254;27;45475;-42
2023/10/12 02:15:50;;;;;;;;;4.33;3.67;;;;;;;;5078190;27;45479;-44
2023/10/12 02:18:17;;;;;;;;;5.00;4.00;;;;;;;;5076087;27;45821;-42
2023/10/12 02:20:59;;;;;;;;;3.33;3.33;;;;;;;;5075973;27;45400;-42
2023/10/12 02:23:25;;;;;;;;;5.33;5.33;;;;;;;;5074185;27;45540;-42
2023/10/12 02:25:56;;;;;;;;;7.67;5.00;;;;;;;;5078850;27;45709;-42
2023/10/12 02:28:22;;;;;;;;;5.67;5.67;;;;;;;;5077930;27;45413;-42
2023/10/12 02:30:53;;;;;;;;;5.00;5.00;;;;;;;;5075186;27;45883;-42
2023/10/12 02:33:23;;;;;;;;;4.67;4.67;;;;;;;;5076667;27;46386;-42
2023/10/12 02:35:49;;;;;;;;;4.00;4.00;;;;;;;;5071885;28;45386;-42
2023/10/12 02:38:15;;;;;;;;;5.00;5.00;;;;;;;;5076652;28;45312;-42
2023/10/12 02:40:41;;;;;;;;;5.00;4.33;;;;;;;;5077712;27;45671;-43
2023/10/12 02:43:09;;;;;;;;;6.00;5.33;;;;;;;;5078173;28;46218;-43
2023/10/12 02:45:40;;;;;;;;;6.00;5.33;;;;;;;;5078974;27;45486;-43
2023/10/12 02:48:06;;;;;;;;;5.00;3.33;;;;;;;;5077685;28;45476;-44
2023/10/12 02:50:38;;;;;;;;;5.67;5.67;;;;;;;;5077024;27;45672;-42
2023/10/12 02:53:09;;;;;;;;;5.33;5.33;;;;;;;;5076654;27;46397;-42
2023/10/12 02:55:40;;;;;;;;;5.00;3.67;;;;;;;;5075836;27;45479;-43
2023/10/12 02:58:19;;;;;;;;;3.67;3.67;;;;;;;;5077315;28;45356;-43
2023/10/12 03:00:46;;;;;;;;;5.33;5.33;;;;;;;;5073561;27;45482;-42
2023/10/12 03:03:54;;;;;;;;;8.00;6.67;;;;;;;;5077304;28;45472;-41
2023/10/12 03:06:07;;;;;;;;;6.00;4.33;;;;;;;;5071457;28;45140;-42
2023/10/12 03:08:34;;;;;;;;;4.67;4.67;;;;;;;;5073618;27;45389;-42
2023/10/12 03:13:33;;;;;;;;;7.00;6.00;;;;;;;;5076747;27;46257;-42
2023/10/12 03:16:03;;;;;;;;;6.33;4.33;;;;;;;;5077920;27;45363;-42
2023/10/12 03:18:29;;;;;;;;;4.67;4.67;;;;;;;;5072258;27;45386;-42
2023/10/12 03:21:03;;;;;;;;;4.67;4.00;;;;;;;;5071209;27;45507;-42
2023/10/12 03:23:29;;;;;;;;;4.33;4.00;;;;;;;;5077271;27;45713;-42
2023/10/12 03:25:54;;;;;;;;;5.00;5.00;;;;;;;;5081044;27;45637;-43
2023/10/12 03:28:29;;;;;;;;;4.00;4.00;;;;;;;;5078959;27;45733;-42
2023/10/12 03:30:57;;;;;;;;;6.67;5.67;;;;;;;;5080067;27;45602;-43
2023/10/12 03:33:34;;;;;;;;;6.33;5.00;;;;;;;;5079125;27;45540;-42
2023/10/12 03:36:13;;;;;;;;;6.00;6.00;;;;;;;;5080869;27;45551;-43
2023/10/12 03:38:39;;;;;;;;;5.67;5.67;;;;;;;;5070851;27;45323;-44
2023/10/12 03:44:09;;;;;;;;;5.00;5.00;;;;;;;;5040762;28;45387;-42
2023/10/12 03:46:35;;;;;;;;;6.00;6.00;;;;;;;;5078229;27;45826;-43
2023/10/12 03:49:17;;;;;;;;;11.00;9.67;;;;;;;;5080248;27;45434;-42
2023/10/12 03:51:42;;;;;;;;;6.33;5.67;;;;;;;;5078990;27;45564;-41
2023/10/12 03:54:26;;;;;;;;;6.00;5.00;;;;;;;;5079706;27;46770;-42
2023/10/12 03:56:53;;;;;;;;;6.00;6.00;;;;;;;;5079784;27;45406;-41
2023/10/12 03:59:26;;;;;;;;;6.33;5.00;;;;;;;;5078574;27;45425;-42
2023/10/12 04:01:54;;;;;;;;;7.00;5.33;;;;;;;;5073934;27;45847;-42
2023/10/12 04:04:27;;;;;;;;;5.00;5.00;;;;;;;;5069453;27;47104;-42
2023/10/12 04:09:43;;;;;;;;;7.67;7.00;;;;;;;;5070754;27;45379;-41
2023/10/12 04:14:49;;;;;;;;;8.33;6.67;;;;;;;;5072193;27;45204;-42
2023/10/12 04:20:13;;;;;;;;;7.00;5.33;;;;;;;;5067761;27;45678;-42
2023/10/12 04:23:36;;;;;;;;;5.00;5.00;;;;;;;;5070751;27;45441;-42
2023/10/12 04:31:20;;;;;;;;;7.67;6.33;;;;;;;;5079235;27;45421;-41
2023/10/12 04:33:39;;;;;;;;;5.67;5.67;;;;;;;;5078482;27;45715;-42
2023/10/12 04:43:53;;;;;;;;;7.00;6.00;;;;;;;;5080359;27;45367;-42
2023/10/12 04:51:39;;;;;;;;;7.00;5.00;;;;;;;;5077804;27;45382;-41
2023/10/12 04:54:15;;;;;;;;;8.67;7.00;;;;;;;;5079764;27;45337;-42
2023/10/12 04:56:49;;;;;;;;;6.67;5.67;;;;;;;;5074536;27;46140;-42
2023/10/12 04:59:16;;;;;;;;;7.33;6.67;;;;;;;;5074767;27;45413;-42
2023/10/12 05:02:14;;;;;;;;;7.67;5.67;;;;;;;;5077633;27;45716;-42
2023/10/12 05:04:49;;;;;;;;;11.00;8.00;;;;;;;;5079103;27;45398;-41
2023/10/12 05:09:49;;;;;;;;;8.67;7.00;;;;;;;;5078070;28;45455;-42
2023/10/12 05:12:14;;;;;;;;;8.00;6.33;;;;;;;;5076618;27;45336;-41
2023/10/12 05:14:40;;;;;;;;;5.00;5.00;;;;;;;;5079896;27;45364;-41
2023/10/12 05:17:08;;;;;;;;;10.00;7.00;;;;;;;;5078753;27;45723;-41
2023/10/12 05:19:33;;;;;;;;;7.67;7.00;;;;;;;;5072342;27;45382;-41
2023/10/12 05:21:58;;;;;;;;;8.67;7.00;;;;;;;;5079488;27;45275;-41
2023/10/12 05:24:24;;;;;;;;;6.67;6.00;;;;;;;;5076049;27;45564;-42
2023/10/12 05:26:54;;;;;;;;;6.67;6.67;;;;;;;;5078720;27;45418;-41
2023/10/12 05:32:06;;;;;;;;;8.00;8.00;;;;;;;;5077994;28;45412;-41
2023/10/12 05:37:16;;;;;;;;;11.00;8.00;;;;;;;;5075477;27;46070;-41
2023/10/12 05:39:47;;;;;;;;;8.00;7.00;;;;;;;;5075781;27;45349;-42
2023/10/12 05:42:16;;;;;;;;;8.67;7.00;;;;;;;;5061431;27;45411;-41
2023/10/12 05:44:42;;;;;;;;;8.67;7.33;;;;;;;;5077678;27;46993;-41
2023/10/12 05:47:11;;;;;;;;;5.67;4.67;;;;;;;;5078331;27;46884;-42
2023/10/12 05:49:37;;;;;;;;;9.00;7.33;;;;;;;;5077445;27;45503;-42
2023/10/12 05:52:05;;;;;;;;;9.00;8.00;;;;;;;;5077968;27;45489;-41
2023/10/12 05:54:31;;;;;;;;;10.00;7.00;;;;;;;;5076702;27;45492;-41
2023/10/12 05:56:56;;;;;;;;;6.67;5.33;;;;;;;;5071860;27;46582;-41
2023/10/12 05:59:22;;;;;;;;;9.00;8.00;;;;;;;;5076733;27;45466;-42
2023/10/12 06:01:51;;;;;;;;;8.33;7.00;;;;;;;;5068251;27;45294;-41
2023/10/12 06:04:18;;;;;;;;;6.33;6.33;;;;;;;;5076757;27;45517;-41
2023/10/12 06:06:43;;;;;;;;;9.33;7.00;;;;;;;;5072389;27;46004;-41
2023/10/12 06:09:13;;;;;;;;;9.67;7.33;;;;;;;;5072833;28;45629;-41
2023/10/12 06:11:41;;;;;;;;;11.00;9.00;;;;;;;;5077940;27;45337;-41
2023/10/12 06:14:07;;;;;;;;;9.00;7.00;;;;;;;;5074242;27;45275;-41
2023/10/12 06:16:39;;;;;;;;;5.67;5.67;;;;;;;;5071542;27;46206;-41
2023/10/12 06:19:05;;;;;;;;;7.67;7.67;;;;;;;;5075565;27;45490;-41
2023/10/12 06:21:32;;;;;;;;;9.00;7.33;;;;;;;;5063726;27;45537;-42
2023/10/12 06:23:59;;;;;;;;;10.67;8.33;;;;;;;;5074511;27;45498;-41
2023/10/12 06:26:34;;;;;;;;;9.00;7.67;;;;;;;;5077608;27;46038;-41
2023/10/12 20:59:17;;;;;;;;;4.00;4.00;;;;;;;;5191372;22;46423;-50
2023/10/12 21:02:00;;;;;;;;;3.00;3.00;;;;;;;;5011786;28;45391;-49
2023/10/12 21:04:30;;;;;;;;;5.25;3.00;;;;;;;;5012011;28;46478;-50
2023/10/12 21:06:55;;;;;;;;;5.75;4.00;;;;;;;;5005743;28;45717;-51
2023/10/12 21:09:21;;;;;;;;;3.50;3.50;;;;;;;;5018268;28;46402;-51
2023/10/12 21:11:48;;;;;;;;;5.00;4.00;;;;;;;;5005063;28;45652;-51
2023/10/12 21:17:33;;;;;;;;;4.25;3.00;;;;;;;;4938536;28;45402;-52
2023/10/12 21:20:09;;;;;;;;;5.33;4.67;;;;;;;;5008669;28;45518;-54
2023/10/12 21:22:34;;;;;;;;;4.00;3.50;;;;;;;;5004650;28;45419;-52
2023/10/12 21:25:00;;;;;;;;;3.00;3.00;;;;;;;;5013327;28;46128;-51
2023/10/12 21:27:37;;;;;;;;;4.00;4.00;;;;;;;;5006954;28;45432;-51
2023/10/12 21:30:04;;;;;;;;;3.00;3.00;;;;;;;;5019954;28;45714;-51
2023/10/12 21:32:29;;;;;;;;;3.00;3.00;;;;;;;;5019842;28;45477;-54
2023/10/12 21:34:54;;;;;;;;;4.67;3.00;;;;;;;;5027090;28;45329;-52
2023/10/12 21:37:19;;;;;;;;;4.25;4.25;;;;;;;;5010771;28;45318;-53
2023/10/12 21:39:46;;;;;;;;;4.00;4.00;;;;;;;;5020970;28;45443;-54
2023/10/12 21:42:11;;;;;;;;;5.00;4.00;;;;;;;;5000693;28;46013;-54
2023/10/12 21:44:41;;;;;;;;;2.67;2.67;;;;;;;;5006663;28;45768;-54
2023/10/12 21:47:09;;;;;;;;;4.25;4.25;;;;;;;;5007245;28;45697;-51
2023/10/12 21:49:34;;;;;;;;;3.75;3.00;;;;;;;;5008097;28;45383;-54
2023/10/12 21:51:59;;;;;;;;;5.50;4.00;;;;;;;;5019914;28;45324;-53
2023/10/12 21:54:27;;;;;;;;;3.00;2.67;;;;;;;;5019258;28;46382;-53
2023/10/12 21:56:55;;;;;;;;;5.00;4.00;;;;;;;;5023686;28;45442;-51
2023/10/12 21:59:21;;;;;;;;;5.00;4.00;;;;;;;;5028019;28;44832;-51
2023/10/12 22:02:01;;;;;;;;;3.00;3.00;;;;;;;;5019719;28;45385;-53
2023/10/12 22:04:30;;;;;;;;;4.75;3.25;;;;;;;;5011614;28;45528;-52
2023/10/12 22:06:56;;;;;;;;;3.00;3.00;;;;;;;;5015252;28;45177;-52
2023/10/12 22:09:28;;;;;;;;;1.00;0.25;;;;;;;;5022562;28;45448;-53
2023/10/12 22:11:55;;;;;;;;;3.25;3.25;;;;;;;;5001743;28;45478;-52
2023/10/12 22:14:48;;;;;;;;;5.00;3.33;;;;;;;;5005328;28;48167;-54
2023/10/12 22:17:06;;;;;;;;;3.33;3.33;;;;;;;;5029529;28;45299;-53
2023/10/12 22:19:32;;;;;;;;;2.00;2.00;;;;;;;;5011838;28;46001;-53
2023/10/12 22:21:57;;;;;;;;;4.00;3.00;;;;;;;;5019847;28;45549;-54
2023/10/12 22:24:23;;;;;;;;;5.25;3.75;;;;;;;;5009631;28;46213;-55
2023/10/12 22:26:50;;;;;;;;;4.00;4.00;;;;;;;;4999662;28;45510;-55
2023/10/12 22:29:16;;;;;;;;;4.33;4.00;;;;;;;;5016141;28;45428;-55
2023/10/12 22:31:44;;;;;;;;;2.00;2.00;;;;;;;;5010692;28;45408;-54
2023/10/12 22:34:14;;;;;;;;;8.25;3.00;;;;;;;;5012416;28;45620;-55
2023/10/12 22:36:39;;;;;;;;;7.00;5.00;;;;;;;;4996659;28;45519;-56
2023/10/12 22:39:15;;;;;;;;;4.00;4.00;;;;;;;;5013657;28;45509;-55
2023/10/12 22:41:41;;;;;;;;;6.75;4.00;;;;;;;;5022099;28;45415;-55
2023/10/12 22:44:07;;;;;;;;;2.00;2.00;;;;;;;;5006222;28;45457;-54
2023/10/12 22:46:32;;;;;;;;;5.00;3.00;;;;;;;;5021677;28;45301;-55
2023/10/12 22:48:58;;;;;;;;;3.33;3.33;;;;;;;;4994464;28;45328;-55
2023/10/12 22:51:25;;;;;;;;;7.00;4.00;;;;;;;;5001557;28;45451;-54
2023/10/12 22:53:50;;;;;;;;;3.75;3.75;;;;;;;;5025123;28;45740;-55
2023/10/12 22:56:15;;;;;;;;;5.00;3.00;;;;;;;;5018197;28;45383;-54
2023/10/12 22:58:42;;;;;;;;;6.00;4.00;;;;;;;;5013875;28;45403;-54
2023/10/12 23:01:10;;;;;;;;;4.00;3.00;;;;;;;;4989633;28;45481;-54
2023/10/12 23:03:36;;;;;;;;;4.75;4.75;;;;;;;;4998532;28;45411;-54
2023/10/12 23:06:04;;;;;;;;;4.50;4.00;;;;;;;;4994596;28;45686;-55
2023/10/12 23:08:29;;;;;;;;;4.00;4.00;;;;;;;;5009801;28;45432;-54
2023/10/12 23:11:04;;;;;;;;;3.50;3.50;;;;;;;;5002220;28;45468;-54
2023/10/12 23:13:32;;;;;;;;;3.50;3.25;;;;;;;;4997932;28;46216;-54
2023/10/12 23:15:57;;;;;;;;;4.00;4.00;;;;;;;;4997826;28;45420;-53
2023/10/12 23:18:24;;;;;;;;;5.25;4.00;;;;;;;;5008958;28;45648;-53
2023/10/12 23:21:01;;;;;;;;;8.50;3.25;;;;;;;;5007459;28;45550;-54
2023/10/12 23:23:26;;;;;;;;;4.00;4.00;;;;;;;;4998080;28;46449;-54
2023/10/12 23:25:52;;;;;;;;;3.25;3.25;;;;;;;;5004318;28;45332;-54
2023/10/12 23:28:19;;;;;;;;;7.75;3.75;;;;;;;;4996634;28;45586;-53
2023/10/12 23:30:55;;;;;;;;;3.25;3.25;;;;;;;;4992009;28;45322;-54
2023/10/12 23:33:34;;;;;;;;;2.75;2.00;;;;;;;;4992004;28;45613;-54
2023/10/12 23:36:00;;;;;;;;;5.75;4.00;;;;;;;;4989932;28;45558;-53
2023/10/12 23:38:26;;;;;;;;;3.00;3.00;;;;;;;;5001608;28;45276;-52
2023/10/12 23:43:40;;;;;;;;;5.25;3.75;;;;;;;;5004780;28;45420;-54
2023/10/12 23:46:12;;;;;;;;;4.75;4.75;;;;;;;;5000590;28;45269;-53
2023/10/12 23:48:57;;;;;;;;;5.00;5.00;;;;;;;;4988248;28;45231;-53
2023/10/12 23:51:32;;;;;;;;;3.75;3.75;;;;;;;;5001788;28;45344;-54
2023/10/12 23:54:06;;;;;;;;;5.00;3.00;;;;;;;;4988233;28;46505;-53
2023/10/12 23:56:31;;;;;;;;;1.75;1.75;;;;;;;;5008950;28;45329;-52
2023/10/12 23:58:57;;;;;;;;;5.00;4.00;;;;;;;;5004722;28;45575;-53
